Aérodrome :
LOGIN :

S'inscrire | Disclaimer

   EN    FR    IT 

 










Légende :    VFR   VFR Marginal   IFR   IFR Intensif   IFR Très Intensif
Visi : 
Plafond : 
>= 8 km
>= 3000ft
5 à 8 km
1000 à 3000 ft
1500m à 5 km
500 à 1000 ft
800 à 1500m
200 à 500 ft
< 800m
< 200 ft
Symboles :   Orages  Brouillard  Fortes neiges  Fortes précipitations  Vent > 20 kt
SIGMETs :   Divers  Orages  Givrage  Turbulence  Onde Orograph.  Cendres Volcan.






- Altitude de l'aérodrome : 13 ft
- Code IATA : CEQ


LFMD - Cannes Mandelieu

DERNIER METAR :
  • 201030Z AUTO 08005KT 010V140 CAVOK 16/M01 Q1025 NOSIG

METARs EXPIRÉS :
  • 201000Z AUTO 10005KT 010V160 CAVOK 16/M01 Q1024 NOSIG
  • 200930Z AUTO VRB02KT CAVOK 14/02 Q1024 NOSIG
  • 200900Z AUTO 36003KT 300V040 CAVOK 11/03 Q1024 BECMG 14010KT
  • 200830Z AUTO 36005KT 320V030 CAVOK 09/02 Q1024 BECMG 11010KT
  • 200800Z AUTO 36006KT 320V040 CAVOK 07/01 Q1024 BECMG 11010KT

TAF TAF LFMD
Valide du 20 à 09h jusqu'au 21 à 09h UTC


200800Z 2009/2109 36005KT CAVOK
BECMG 2009/2012 14010KT
BECMG 2018/2021 36006KT
PROB30
TEMPO 2103/2109 BKN014
ATIS : +33 4 93 48 73 23



MET'MAP, la Météo Aéronautique d'un coup d'oeil ! - Copyright ORBIFLY Décembre 2007 - Disclaimer

ORBIFLY MET'MAP TEAM :

Programmation & Développement : Alexandra Zaïnal
Sur une idée originale de : Baudouin d'Aumeries
Assistance à la programmation : Marc-Olivier Méhu
Soutien technique & logistique : Manuel Goepfert

Contact : metmap@orbifly.com




SOURCES & CREDITS :

   NOAA